Huvudsida
METAR-TAF:

METAR-TAF

Flygplatser :

Svalbards flygplats. Longyear

Longyearbyen, Norge

latitud: 78-15N, longitud: 015-28E, höjd: 2 m

Aktuellt väderrapport

Denna rapport gjordes för 18 minuter sedan, klockan 19:20 UTC
Vind 10 kt från väst/sydväst
Temperatur 5°C
Fuktighet 87%
Tryck 998 hPa
Sikt 10 km eller mer
Få moln på en höjd av 400 ft
Brutna moln på en höjd av 1500 ft

METAR: ENSB 251920Z 24010KT 9999 FEW004 BKN015 05/03 Q0998 RMK WIND 1400FT 23011KT

Tid: 21:38 (19:38 UTC)

Väderprognos

Prognos gäller från 25 kl. 18 UTC till 26 kl. 18 UTC
Vind 15 kt från väst/sydväst
Sikt 10 km eller mer
Få moln på en höjd av 600 ft
Brutna moln på en höjd av 2000 ft
Temporärt
från 25 kl. 18 UTC till 25 kl. 24 UTC
Spridda moln på en höjd av 600 ft
Brutna moln på en höjd av 1200 ft
Blir
från 25 kl. 19 UTC till 25 kl. 21 UTC
Vind 5 kt från väst/sydväst

TAF: ENSB 2518/2618 24015KT 9999 FEW006 BKN020 TEMPO 2518/2524 SCT006 BKN012 BECMG 2519/2521 25005KT

Aktuella väderrapporter och prognoser från 4000 flygplatser (METAR- och TAF-rapporter).

De tillgängliga stationerna syns som gula och röda prickar på kartan.

För musen över prickarna för att se namnen på stationerna.

Klicka sedan för att få väderrapporter och prognoser.

För att ändra kartan: Klicka på de gröna knapparna med ett svart kors på för att zooma in; den gröna knappen med ett streck på för att zooma ut; eller på de gröna pilarna för angränsande kartor.


METAR-TAF: